Augusta, GA

11:38 AM EDT on April 18, 2015 (GMT -0400)
Daniel | | Change Station
CLOSE
Current Station
Airport
Location: Augusta,
Elevation: 420 ft
Nearby Weather Stations

Elev 420 ft 33.47 °N, 82.04 °W | Updated 21 minutes ago

Rain
Rain
68 °F
Feels Like 68 °F
N
6
Wind Variable Wind from East

Today
High -- | Low -- °F
--% Chance of Precip.
Yesterday
High -- | Low -- °F
Precip. -- in
6:54 AM 8:00 PM
Waning Crescent, 0% visible
Pressure 30.00 in
Visibility 2.0 miles
Clouds Mostly Cloudy 500 ft
Mostly Cloudy 900 ft
Overcast 2100 ft
Dew Point 65 °F
Humidity 90%
Rainfall 0.46 in
Snow Depth Not available.
UV 2 out of 12
Pollen 8.20 out of 12
Air Quality Not available.
Flu Activity Sporadic
SPECI KDNL 181517Z AUTO 09005KT 2SM RA BR BKN005 BKN009 OVC021 20/18 A3000 RMK AO2 P0016 T02000183

More Conditions Fewer Conditions

Pressure 30.00 in
Visibility 2.0 miles
Clouds Mostly Cloudy 500 ft
Mostly Cloudy 900 ft
Overcast 2100 ft
Dew Point 65 °F
Humidity 90%
Rainfall 0.46 in
Snow Depth Not available.
UV 2 out of 12
Pollen 8.20 out of 12
Air Quality Not available.
Flu Activity Sporadic
SPECI KDNL 181517Z AUTO 09005KT 2SM RA BR BKN005 BKN009 OVC021 20/18 A3000 RMK AO2 P0016 T02000183

More Conditions Fewer Conditions

10-Day Weather Forecast

Almanac

Astronomy

Apr. 18, 2015 Rise Set
Actual Time
Civil Twilight
Nautical Twilight
Astronomical Twilight
Moon
Length of Visible Light
Length of Day
Tomorrow will be .
, % of the Moon is Illuminated

Today's Extremes

State Highs State Lows

Community

WunderPhotos

Upload Photos

1,814,435 photos uploaded!

WunderBlogs® & News

Nearby

Air Quality

  Air Quality AQ Index Pollutant
Not available.

Snow Depth

Station Depth Elevation

Earthquake Activity

City Distance Mag. Time & Date
Minimum magnitude displayed is 2.5.

Coastal Water Temperatures

Place Temperature

Stations

Nearby Weather Stations

Station Location Temp. Windchill Dew Point Humidity Wind Precip. Elev Updated Type